Time;durP1;ratioP1;P1;durP2;ratioP2;P2;SDS_P1;SDS_P2;PMS_P1;PMS_P2;Temp;Humidity;BMP_temperature;BMP_pressure;BME280_temperature;BME280_humidity;BME280_pressure;Samples;Min_cycle;Max_cycle;Signal;HPM_P1;HPM_P2
2023/08/21 00:01:57;;;;;;;0.95;0.95;;;;;22.80;96639.00;;;;5134074;28;20215;-59
2023/08/21 00:04:24;;;;;;;1.13;1.13;;;;;22.60;96645.00;;;;5132685;28;20211;-59
2023/08/21 00:06:52;;;;;;;1.60;1.50;;;;;22.60;96645.00;;;;5133989;28;20205;-60
2023/08/21 00:09:19;;;;;;;0.93;0.90;;;;;22.50;96640.00;;;;5134109;28;20212;-60
2023/08/21 00:11:48;;;;;;;1.73;1.63;;;;;22.50;96633.00;;;;5134027;28;20197;-60
2023/08/21 00:14:16;;;;;;;1.63;1.52;;;;;22.50;96638.00;;;;5134044;28;20189;-60
2023/08/21 00:16:43;;;;;;;1.42;1.42;;;;;22.50;96630.00;;;;5133919;28;20213;-60
2023/08/21 00:19:10;;;;;;;1.02;1.02;;;;;22.60;96633.00;;;;5133804;28;20652;-59
2023/08/21 00:21:38;;;;;;;1.15;1.15;;;;;22.50;96628.00;;;;5134027;28;20240;-59
2023/08/21 00:24:06;;;;;;;1.00;1.00;;;;;22.50;96628.00;;;;5133896;28;20292;-59
2023/08/21 00:26:33;;;;;;;2.33;1.38;;;;;22.50;96634.00;;;;5134162;28;20218;-59
2023/08/21 00:29:02;;;;;;;1.58;1.48;;;;;22.50;96622.00;;;;5132766;28;20197;-59
2023/08/21 00:31:29;;;;;;;1.40;1.30;;;;;22.40;96624.00;;;;5134279;28;20189;-59
2023/08/21 00:33:56;;;;;;;1.00;1.00;;;;;22.30;96625.00;;;;5132862;28;20209;-59
2023/08/21 00:36:24;;;;;;;0.80;0.80;;;;;22.30;96624.00;;;;5134016;28;20221;-59
2023/08/21 00:38:51;;;;;;;1.42;1.35;;;;;22.30;96631.00;;;;5134292;28;20189;-59
2023/08/21 00:41:19;;;;;;;1.00;1.00;;;;;22.20;96623.00;;;;5135678;27;20216;-59
2023/08/21 00:43:46;;;;;;;1.20;1.20;;;;;22.20;96628.00;;;;5138612;27;20629;-59
2023/08/21 00:46:15;;;;;;;20.15;2.08;;;;;22.20;96616.00;;;;5137890;27;20213;-60
2023/08/21 00:48:43;;;;;;;2.90;1.35;;;;;22.10;96623.00;;;;5138253;27;20193;-60
2023/08/21 00:51:11;;;;;;;1.23;1.20;;;;;22.10;96615.00;;;;5137802;27;20197;-59
2023/08/21 00:53:39;;;;;;;1.45;1.35;;;;;22.10;96611.00;;;;5137566;27;20249;-59
2023/08/21 00:56:06;;;;;;;2.05;1.63;;;;;22.00;96611.00;;;;5137423;27;20210;-59
2023/08/21 00:58:34;;;;;;;3.63;3.03;;;;;22.10;96609.00;;;;5136206;27;20560;-59
2023/08/21 01:01:04;;;;;;;1.60;1.50;;;;;22.00;96608.00;;;;5137745;27;20217;-59
2023/08/21 01:03:33;;;;;;;1.75;1.65;;;;;22.00;96604.00;;;;5137478;27;20564;-59
2023/08/21 01:06:00;;;;;;;1.52;1.42;;;;;22.00;96605.00;;;;5137547;27;20217;-59
2023/08/21 01:08:36;;;;;;;1.48;1.42;;;;;22.00;96605.00;;;;5135608;27;20201;-59
2023/08/21 01:11:09;;;;;;;1.50;1.40;;;;;21.80;96610.00;;;;5137263;27;20180;-59
2023/08/21 01:13:48;;;;;;;1.35;1.33;;;;;21.90;96608.00;;;;5137393;27;20201;-59
2023/08/21 01:16:16;;;;;;;0.93;0.93;;;;;21.90;96605.00;;;;5137148;27;20288;-59
2023/08/21 01:18:48;;;;;;;2.20;1.95;;;;;21.90;96609.00;;;;5137312;27;20193;-59
2023/08/21 01:21:16;;;;;;;1.33;1.23;;;;;21.80;96612.00;;;;5136904;27;20201;-59
2023/08/21 01:23:45;;;;;;;1.85;1.73;;;;;21.80;96619.00;;;;5136945;27;20192;-59
2023/08/21 01:26:12;;;;;;;1.00;1.00;;;;;21.80;96612.00;;;;5136630;27;20700;-59
2023/08/21 01:28:40;;;;;;;1.08;1.08;;;;;21.90;96618.00;;;;5135418;27;20228;-59
2023/08/21 01:31:18;;;;;;;1.50;1.40;;;;;21.90;96620.00;;;;5136705;27;20607;-59
2023/08/21 01:33:51;;;;;;;1.35;1.27;;;;;21.90;96614.00;;;;5137169;27;20574;-59
2023/08/21 01:36:19;;;;;;;1.20;1.20;;;;;21.80;96607.00;;;;5136614;27;20591;-61
2023/08/21 01:38:48;;;;;;;3.42;2.75;;;;;21.70;96610.00;;;;5136451;27;20197;-60
2023/08/21 01:41:16;;;;;;;1.85;1.60;;;;;21.70;96610.00;;;;5136386;27;20217;-61
2023/08/21 01:43:43;;;;;;;1.83;1.73;;;;;21.50;96607.00;;;;5136480;27;20189;-61
2023/08/21 01:46:11;;;;;;;2.15;2.05;;;;;21.50;96608.00;;;;5136202;27;20217;-60
2023/08/21 01:48:39;;;;;;;1.42;1.35;;;;;21.60;96606.00;;;;5136825;27;20189;-60
2023/08/21 01:51:06;;;;;;;1.50;1.40;;;;;21.60;96600.00;;;;5136195;27;20204;-60
2023/08/21 01:53:34;;;;;;;1.35;1.25;;;;;21.50;96602.00;;;;5135101;27;20189;-59
2023/08/21 01:56:02;;;;;;;1.23;1.17;;;;;21.60;96595.00;;;;5136215;27;20213;-60
2023/08/21 01:58:30;;;;;;;1.50;1.50;;;;;21.60;96596.00;;;;5136073;27;20189;-60
2023/08/21 02:00:57;;;;;;;1.70;1.60;;;;;21.60;96595.00;;;;5136247;27;20196;-60
2023/08/21 02:03:27;;;;;;;1.88;1.77;;;;;21.60;96592.00;;;;5136154;27;20232;-60
2023/08/21 02:05:58;;;;;;;1.48;1.38;;;;;21.50;96602.00;;;;5136090;27;20185;-60
2023/08/21 02:08:31;;;;;;;1.83;1.73;;;;;21.50;96604.00;;;;5134712;27;20186;-60
2023/08/21 02:10:58;;;;;;;0.85;0.85;;;;;21.40;96600.00;;;;5135906;27;20170;-60
2023/08/21 02:13:27;;;;;;;1.58;1.50;;;;;21.40;96596.00;;;;5136369;27;20189;-60
2023/08/21 02:15:55;;;;;;;1.70;1.60;;;;;21.40;96605.00;;;;5136029;27;20198;-60
2023/08/21 02:18:23;;;;;;;2.17;1.80;;;;;21.40;96609.00;;;;5135644;27;20205;-60
2023/08/21 02:20:51;;;;;;;1.05;1.05;;;;;21.40;96609.00;;;;5135598;27;20562;-60
2023/08/21 02:23:18;;;;;;;1.35;1.30;;;;;21.30;96601.00;;;;5134243;27;20265;-60
2023/08/21 02:25:46;;;;;;;1.42;1.33;;;;;21.30;96614.00;;;;5135533;27;20190;-61
2023/08/21 02:28:13;;;;;;;4.30;2.72;;;;;21.30;96609.00;;;;5135501;27;20200;-60
2023/08/21 02:30:43;;;;;;;1.70;1.60;;;;;21.30;96615.00;;;;5136138;27;20185;-60
2023/08/21 02:33:11;;;;;;;1.45;1.35;;;;;21.30;96606.00;;;;5135393;27;20644;-60
2023/08/21 02:35:38;;;;;;;0.90;0.90;;;;;21.30;96604.00;;;;5135259;27;20200;-60
2023/08/21 02:38:05;;;;;;;1.27;1.25;;;;;21.20;96604.00;;;;5135349;27;20197;-60
2023/08/21 02:40:33;;;;;;;2.10;2.00;;;;;21.20;96606.00;;;;5135086;27;20193;-60
2023/08/21 02:43:00;;;;;;;1.48;1.38;;;;;21.20;96607.00;;;;5135278;27;20210;-61
2023/08/21 02:45:27;;;;;;;1.50;1.40;;;;;21.10;96606.00;;;;5135209;27;20197;-61
2023/08/21 02:47:56;;;;;;;1.65;1.58;;;;;21.20;96606.00;;;;5135128;27;20213;-61
2023/08/21 02:50:24;;;;;;;2.20;2.10;;;;;21.10;96606.00;;;;5134996;27;20264;-60
2023/08/21 02:52:51;;;;;;;1.10;1.10;;;;;21.10;96609.00;;;;5135332;27;20181;-60
2023/08/21 02:55:20;;;;;;;1.50;1.33;;;;;21.00;96596.00;;;;5134823;27;20197;-60
2023/08/21 02:57:47;;;;;;;1.63;1.52;;;;;21.00;96605.00;;;;5134870;27;20611;-60
2023/08/21 03:00:16;;;;;;;1.40;1.30;;;;;20.90;96600.00;;;;5134818;27;20190;-60
2023/08/21 03:02:43;;;;;;;1.52;1.42;;;;;21.00;96602.00;;;;5135207;27;20217;-60
2023/08/21 03:05:13;;;;;;;1.63;1.55;;;;;21.00;96599.00;;;;5134390;27;20201;-60
2023/08/21 03:07:40;;;;;;;2.05;1.90;;;;;20.90;96601.00;;;;5134790;27;20220;-60
2023/08/21 03:10:09;;;;;;;2.35;2.15;;;;;21.00;96592.00;;;;5133447;27;20189;-60
2023/08/21 03:12:36;;;;;;;2.20;2.00;;;;;20.90;96599.00;;;;5134965;27;20186;-60
2023/08/21 03:15:04;;;;;;;1.13;1.13;;;;;20.90;96591.00;;;;5133504;27;20193;-60
2023/08/21 03:17:32;;;;;;;1.48;1.42;;;;;20.80;96598.00;;;;5135020;27;20209;-60
2023/08/21 03:19:59;;;;;;;0.98;0.98;;;;;20.80;96600.00;;;;5135749;27;20284;-60
2023/08/21 03:22:28;;;;;;;1.55;1.45;;;;;20.80;96593.00;;;;5134936;27;20592;-59
2023/08/21 03:24:55;;;;;;;1.40;1.30;;;;;20.70;96601.00;;;;5134431;27;20204;-59
2023/08/21 03:27:23;;;;;;;2.50;1.70;;;;;20.90;96605.00;;;;5134262;27;20297;-60
2023/08/21 03:29:51;;;;;;;2.67;2.47;;;;;20.80;96595.00;;;;5134496;27;20197;-60
2023/08/21 03:32:18;;;;;;;1.48;1.40;;;;;20.80;96596.00;;;;5134750;27;20186;-59
2023/08/21 03:34:46;;;;;;;1.23;1.23;;;;;20.70;96597.00;;;;5133326;27;20201;-59
2023/08/21 03:37:13;;;;;;;1.10;1.10;;;;;20.80;96608.00;;;;5134709;27;20228;-59
2023/08/21 03:39:42;;;;;;;1.83;1.17;;;;;20.80;96601.00;;;;5134489;27;20189;-60
2023/08/21 03:42:09;;;;;;;1.08;1.08;;;;;20.80;96608.00;;;;5134713;27;20254;-60
2023/08/21 03:44:38;;;;;;;1.77;1.67;;;;;20.70;96597.00;;;;5133246;27;20651;-60
2023/08/21 03:47:06;;;;;;;1.55;1.45;;;;;20.70;96605.00;;;;5134293;27;20216;-60
2023/08/21 03:49:34;;;;;;;1.45;1.35;;;;;20.70;96611.00;;;;5134738;27;20196;-59
2023/08/21 03:52:01;;;;;;;3.17;1.80;;;;;20.60;96600.00;;;;5134506;28;20181;-60
2023/08/21 03:54:28;;;;;;;3.00;2.30;;;;;20.50;96606.00;;;;5134350;28;20189;-60
2023/08/21 03:56:57;;;;;;;1.92;1.83;;;;;20.50;96609.00;;;;5134523;28;20225;-59
2023/08/21 03:59:27;;;;;;;3.38;1.83;;;;;20.50;96606.00;;;;5134600;28;20189;-59
2023/08/21 04:01:54;;;;;;;1.08;1.08;;;;;20.60;96605.00;;;;5132920;28;20202;-59
2023/08/21 04:04:22;;;;;;;1.30;1.20;;;;;20.50;96612.00;;;;5134211;28;20197;-60
2023/08/21 04:06:49;;;;;;;1.80;1.70;;;;;20.50;96613.00;;;;5133975;28;20656;-60
2023/08/21 04:09:17;;;;;;;0.80;0.80;;;;;20.50;96611.00;;;;5134101;28;20737;-60
2023/08/21 04:11:44;;;;;;;2.25;2.05;;;;;20.50;96616.00;;;;5133939;28;20196;-59
2023/08/21 04:14:13;;;;;;;1.17;1.17;;;;;20.50;96619.00;;;;5134199;28;20212;-59
2023/08/21 04:16:40;;;;;;;1.75;1.65;;;;;20.40;96617.00;;;;5136611;27;20209;-59
2023/08/21 04:19:08;;;;;;;1.25;1.25;;;;;20.50;96625.00;;;;5138406;27;20189;-59
2023/08/21 04:21:35;;;;;;;1.35;1.25;;;;;20.40;96625.00;;;;5138206;27;20197;-59
2023/08/21 04:24:03;;;;;;;4.63;1.55;;;;;20.50;96626.00;;;;5138172;27;20684;-59
2023/08/21 04:26:31;;;;;;;1.73;1.63;;;;;20.50;96624.00;;;;5137938;27;20211;-59
2023/08/21 04:28:58;;;;;;;1.92;1.83;;;;;20.50;96617.00;;;;5136602;27;20614;-59
2023/08/21 04:31:27;;;;;;;1.38;1.30;;;;;20.50;96626.00;;;;5138046;27;20189;-59
2023/08/21 04:33:54;;;;;;;1.45;1.35;;;;;20.40;96620.00;;;;5137756;27;20186;-59
2023/08/21 04:36:21;;;;;;;1.20;1.20;;;;;20.30;96622.00;;;;5137710;27;20216;-59
2023/08/21 04:38:49;;;;;;;0.93;0.93;;;;;20.30;96627.00;;;;5137892;27;20548;-59
2023/08/21 04:41:16;;;;;;;1.63;1.53;;;;;20.30;96625.00;;;;5137681;27;20186;-59
2023/08/21 04:43:44;;;;;;;1.85;1.50;;;;;20.30;96624.00;;;;5137609;27;20216;-60
2023/08/21 04:46:11;;;;;;;1.42;1.40;;;;;20.40;96619.00;;;;5137643;27;20759;-59
2023/08/21 04:48:40;;;;;;;1.70;1.43;;;;;20.50;96620.00;;;;5137632;27;20234;-59
2023/08/21 04:51:08;;;;;;;2.88;1.52;;;;;20.60;96623.00;;;;5137641;27;20197;-59
2023/08/21 04:53:35;;;;;;;2.08;1.80;;;;;20.60;96628.00;;;;5136007;27;20690;-59
2023/08/21 04:56:03;;;;;;;3.00;2.75;;;;;20.60;96626.00;;;;5137339;27;20213;-59
2023/08/21 04:58:30;;;;;;;2.03;1.93;;;;;20.50;96627.00;;;;5137739;27;20197;-59
2023/08/21 05:00:58;;;;;;;4.95;2.28;;;;;20.40;96627.00;;;;5137885;27;20193;-59
2023/08/21 05:03:26;;;;;;;1.33;1.23;;;;;20.30;96624.00;;;;5137876;27;20213;-60
2023/08/21 05:05:58;;;;;;;1.30;1.30;;;;;20.30;96634.00;;;;5137163;27;20201;-59
2023/08/21 05:08:26;;;;;;;4.65;2.05;;;;;20.30;96637.00;;;;5137137;27;20193;-59
2023/08/21 05:10:57;;;;;;;1.00;1.00;;;;;20.40;96641.00;;;;5137057;27;20197;-59
2023/08/21 05:13:25;;;;;;;1.00;1.00;;;;;20.40;96641.00;;;;5137450;27;20219;-59
2023/08/21 05:15:56;;;;;;;1.23;1.23;;;;;20.50;96638.00;;;;5137038;27;20222;-60
2023/08/21 05:18:24;;;;;;;1.30;1.30;;;;;20.60;96645.00;;;;5136927;27;20652;-60
2023/08/21 05:20:52;;;;;;;2.63;1.53;;;;;20.70;96648.00;;;;5136964;27;20625;-60
2023/08/21 05:23:20;;;;;;;1.23;1.23;;;;;20.80;96645.00;;;;5136832;27;20564;-59
2023/08/21 05:25:49;;;;;;;2.17;2.08;;;;;20.70;96645.00;;;;5136751;27;20557;-60
2023/08/21 05:28:16;;;;;;;1.75;1.50;;;;;20.80;96636.00;;;;5136742;27;20329;-60
2023/08/21 05:30:47;;;;;;;1.23;1.23;;;;;20.90;96646.00;;;;5137025;27;20198;-59
2023/08/21 05:33:14;;;;;;;1.50;1.40;;;;;20.90;96644.00;;;;5136698;27;20219;-58
2023/08/21 05:35:42;;;;;;;2.35;2.15;;;;;20.90;96650.00;;;;5136729;27;20212;-58
2023/08/21 05:38:09;;;;;;;2.15;1.58;;;;;21.00;96650.00;;;;5136657;27;20212;-59
2023/08/21 05:40:38;;;;;;;1.40;1.35;;;;;21.00;96644.00;;;;5136699;27;20200;-59
2023/08/21 05:43:05;;;;;;;3.35;2.38;;;;;21.10;96645.00;;;;5136442;27;20209;-59
2023/08/21 05:45:33;;;;;;;2.13;2.03;;;;;21.10;96647.00;;;;5136279;27;20587;-59
2023/08/21 05:48:00;;;;;;;1.40;1.40;;;;;21.10;96651.00;;;;5136756;27;20205;-59
2023/08/21 05:50:27;;;;;;;1.52;1.42;;;;;21.20;96642.00;;;;5136479;27;20725;-58
2023/08/21 05:52:57;;;;;;;1.58;1.48;;;;;21.20;96645.00;;;;5136071;27;20182;-58
2023/08/21 05:55:24;;;;;;;1.95;1.85;;;;;21.30;96631.00;;;;5136282;27;20262;-59
2023/08/21 05:57:53;;;;;;;2.25;2.15;;;;;21.30;96648.00;;;;5136099;27;20208;-59
2023/08/21 06:00:21;;;;;;;4.75;1.63;;;;;21.40;96645.00;;;;5135978;27;20190;-59
2023/08/21 06:02:48;;;;;;;1.42;1.42;;;;;21.40;96642.00;;;;5135820;27;20221;-59
2023/08/21 06:05:16;;;;;;;3.50;2.72;;;;;21.50;96641.00;;;;5135891;27;20190;-60
2023/08/21 06:07:44;;;;;;;1.65;1.55;;;;;21.50;96648.00;;;;5135898;27;20209;-59
2023/08/21 06:10:12;;;;;;;1.63;1.52;;;;;21.50;96651.00;;;;5134932;27;20189;-59
2023/08/21 06:12:41;;;;;;;2.03;1.92;;;;;21.50;96649.00;;;;5135857;27;20189;-59
2023/08/21 06:15:11;;;;;;;1.92;1.77;;;;;21.60;96651.00;;;;5136120;27;20193;-59
2023/08/21 06:17:40;;;;;;;3.65;2.00;;;;;21.70;96650.00;;;;5135824;27;20216;-59
2023/08/21 06:20:09;;;;;;;2.00;1.80;;;;;21.80;96647.00;;;;5135568;27;20235;-59
2023/08/21 06:22:36;;;;;;;2.13;1.65;;;;;22.00;96650.00;;;;5135803;27;20247;-59
2023/08/21 06:25:05;;;;;;;2.28;2.17;;;;;21.90;96649.00;;;;5135836;27;20537;-60
2023/08/21 06:27:32;;;;;;;2.15;2.05;;;;;22.00;96658.00;;;;5135387;27;20213;-59
2023/08/21 06:30:00;;;;;;;1.60;1.50;;;;;22.00;96649.00;;;;5135704;27;20186;-60
2023/08/21 06:32:28;;;;;;;1.73;1.63;;;;;22.20;96648.00;;;;5135470;27;20189;-59
2023/08/21 06:34:56;;;;;;;1.77;1.67;;;;;22.20;96652.00;;;;5135473;27;20200;-59
2023/08/21 06:37:24;;;;;;;2.17;2.08;;;;;22.40;96653.00;;;;5135151;27;20205;-59
2023/08/21 06:39:52;;;;;;;1.52;1.52;;;;;22.50;96657.00;;;;5134479;27;20193;-59
2023/08/21 06:42:19;;;;;;;1.58;1.48;;;;;22.70;96660.00;;;;5135038;27;20226;-59
2023/08/21 06:44:47;;;;;;;2.20;1.67;;;;;22.70;96654.00;;;;5135036;27;20572;-59
2023/08/21 06:47:14;;;;;;;2.03;1.70;;;;;22.80;96658.00;;;;5135032;27;20255;-59
2023/08/21 06:49:43;;;;;;;1.85;1.75;;;;;22.80;96663.00;;;;5135432;27;20546;-60
2023/08/21 06:52:10;;;;;;;1.73;1.63;;;;;22.90;96660.00;;;;5135079;27;20276;-59
2023/08/21 06:54:38;;;;;;;1.23;1.23;;;;;23.00;96668.00;;;;5134871;27;20671;-60
2023/08/21 06:57:06;;;;;;;3.42;2.25;;;;;23.10;96660.00;;;;5135372;27;20213;-60
2023/08/21 06:59:35;;;;;;;1.73;1.63;;;;;23.20;96659.00;;;;5134752;27;20201;-59
2023/08/21 07:02:03;;;;;;;1.27;1.17;;;;;23.20;96666.00;;;;5134710;27;20728;-59
2023/08/21 07:04:32;;;;;;;2.78;1.83;;;;;23.40;96666.00;;;;5134864;27;20213;-59
2023/08/21 07:07:01;;;;;;;2.17;1.98;;;;;23.60;96671.00;;;;5133480;27;20213;-60
2023/08/21 07:09:29;;;;;;;2.13;1.92;;;;;23.80;96675.00;;;;5134977;27;20204;-60
2023/08/21 07:11:56;;;;;;;4.10;1.60;;;;;23.90;96666.00;;;;5134774;27;20668;-60
2023/08/21 07:14:24;;;;;;;1.83;1.63;;;;;23.90;96669.00;;;;5134631;27;20193;-60
2023/08/21 07:16:51;;;;;;;2.08;1.98;;;;;24.00;96673.00;;;;5134521;27;20245;-60
2023/08/21 07:19:19;;;;;;;1.95;1.80;;;;;24.10;96674.00;;;;5134486;27;20185;-60
2023/08/21 07:21:46;;;;;;;1.88;1.77;;;;;24.20;96666.00;;;;5134587;27;20193;-60
2023/08/21 07:24:15;;;;;;;2.67;2.10;;;;;24.10;96669.00;;;;5134199;27;20205;-60
2023/08/21 07:26:43;;;;;;;4.15;2.20;;;;;24.20;96667.00;;;;5134074;27;20209;-60
2023/08/21 07:29:10;;;;;;;1.83;1.73;;;;;24.20;96665.00;;;;5134038;27;20189;-60
2023/08/21 07:31:37;;;;;;;1.10;1.10;;;;;24.30;96667.00;;;;5134102;27;20202;-60
2023/08/21 07:34:05;;;;;;;3.25;1.73;;;;;24.30;96675.00;;;;5134455;27;20181;-60
2023/08/21 07:36:33;;;;;;;1.67;1.58;;;;;24.50;96677.00;;;;5134098;27;20570;-60
2023/08/21 07:39:01;;;;;;;1.33;1.33;;;;;24.70;96668.00;;;;5134105;27;20196;-60
2023/08/21 07:41:30;;;;;;;1.42;1.30;;;;;24.90;96668.00;;;;5134529;27;20190;-60
2023/08/21 07:43:57;;;;;;;1.77;1.67;;;;;25.20;96671.00;;;;5134380;27;20295;-60
2023/08/21 07:46:24;;;;;;;1.25;1.25;;;;;25.30;96674.00;;;;5134083;27;20220;-60
2023/08/21 07:48:53;;;;;;;1.83;1.73;;;;;25.40;96675.00;;;;5134181;27;20204;-60
2023/08/21 07:51:21;;;;;;;2.10;2.00;;;;;25.70;96679.00;;;;5133305;27;20543;-60
2023/08/21 07:53:48;;;;;;;1.10;1.10;;;;;25.70;96672.00;;;;5133868;28;20189;-60
2023/08/21 07:56:15;;;;;;;1.23;1.13;;;;;25.60;96673.00;;;;5133805;28;20661;-61
2023/08/21 07:58:44;;;;;;;1.75;1.65;;;;;25.80;96672.00;;;;5133864;28;20189;-60
2023/08/21 08:01:12;;;;;;;1.33;1.33;;;;;25.90;96673.00;;;;5134067;28;20220;-60
2023/08/21 08:03:39;;;;;;;1.60;1.50;;;;;26.00;96669.00;;;;5133704;28;20225;-60
2023/08/21 08:06:06;;;;;;;2.42;1.80;;;;;26.10;96670.00;;;;5132565;28;20209;-60
2023/08/21 08:08:34;;;;;;;2.80;2.60;;;;;26.10;96669.00;;;;5133990;28;20550;-62
2023/08/21 08:11:06;;;;;;;1.60;1.50;;;;;26.30;96666.00;;;;5133865;28;20196;-60
2023/08/21 08:13:33;;;;;;;1.45;1.35;;;;;26.50;96670.00;;;;5132467;28;20190;-60
2023/08/21 08:16:02;;;;;;;2.53;2.30;;;;;26.60;96672.00;;;;5134225;28;20209;-60
2023/08/21 08:18:29;;;;;;;1.52;1.30;;;;;26.70;96672.00;;;;5134368;28;20555;-60
2023/08/21 08:20:57;;;;;;;2.15;1.77;;;;;26.80;96676.00;;;;5133787;28;20189;-60
2023/08/21 08:23:24;;;;;;;1.92;1.83;;;;;26.90;96678.00;;;;5133528;28;20217;-60
2023/08/21 08:25:52;;;;;;;1.80;1.70;;;;;27.00;96677.00;;;;5133747;28;20196;-60
2023/08/21 08:28:20;;;;;;;1.65;1.55;;;;;26.90;96676.00;;;;5134112;28;20284;-59
2023/08/21 08:30:47;;;;;;;1.65;1.55;;;;;27.20;96678.00;;;;5133657;28;20186;-59
2023/08/21 08:33:16;;;;;;;1.60;1.50;;;;;27.20;96682.00;;;;5132290;28;20197;-59
2023/08/21 08:35:44;;;;;;;2.05;1.95;;;;;27.30;96675.00;;;;5134050;28;20206;-59
2023/08/21 08:38:11;;;;;;;1.63;1.52;;;;;27.30;96672.00;;;;5133488;28;20190;-59
2023/08/21 08:40:45;;;;;;;1.27;1.27;;;;;27.50;96681.00;;;;5133481;28;20189;-59
2023/08/21 08:43:13;;;;;;;1.30;1.20;;;;;27.60;96670.00;;;;5133931;28;20542;-59
2023/08/21 08:45:42;;;;;;;1.05;1.05;;;;;27.70;96670.00;;;;5133461;28;20190;-59
2023/08/21 08:48:10;;;;;;;1.95;1.70;;;;;27.80;96667.00;;;;5133510;28;20652;-59
2023/08/21 08:50:40;;;;;;;1.27;1.27;;;;;28.10;96667.00;;;;5134473;28;20197;-60
2023/08/21 08:53:09;;;;;;;1.55;1.45;;;;;28.30;96667.00;;;;5133384;28;20589;-60
2023/08/21 08:55:36;;;;;;;1.05;1.05;;;;;28.40;96669.00;;;;5133292;28;20246;-60
2023/08/21 08:58:05;;;;;;;1.15;1.15;;;;;28.50;96673.00;;;;5134226;28;20293;-60
2023/08/21 09:00:32;;;;;;;1.25;1.23;;;;;28.50;96669.00;;;;5133777;28;20200;-60
2023/08/21 09:03:00;;;;;;;1.00;1.00;;;;;28.70;96676.00;;;;5136301;27;20205;-60
2023/08/21 09:05:27;;;;;;;1.20;1.20;;;;;28.70;96674.00;;;;5136886;27;20213;-59
2023/08/21 09:08:11;;;;;;;0.80;0.80;;;;;28.90;96672.00;;;;5136827;27;20202;-60
2023/08/21 09:10:40;;;;;;;1.35;1.20;;;;;29.00;96669.00;;;;5137655;27;20238;-59
2023/08/21 09:13:15;;;;;;;1.58;1.48;;;;;29.10;96672.00;;;;5137548;27;20193;-59
2023/08/21 09:15:43;;;;;;;1.42;1.33;;;;;29.20;96680.00;;;;5137768;27;20189;-59
2023/08/21 09:18:12;;;;;;;1.90;1.75;;;;;29.10;96687.00;;;;5136408;27;20276;-59
2023/08/21 09:20:39;;;;;;;2.00;1.90;;;;;29.10;96676.00;;;;5137770;27;20272;-59
2023/08/21 09:23:08;;;;;;;1.55;1.45;;;;;29.10;96670.00;;;;5137694;27;20201;-60
2023/08/21 09:25:36;;;;;;;1.33;1.15;;;;;29.30;96675.00;;;;5137914;27;20220;-60
2023/08/21 09:28:07;;;;;;;3.05;2.15;;;;;29.50;96675.00;;;;5137572;27;20230;-60
2023/08/21 09:30:49;;;;;;;1.17;1.15;;;;;29.70;96677.00;;;;5138481;27;20174;-60
2023/08/21 09:33:19;;;;;;;2.05;1.83;;;;;29.70;96678.00;;;;5137049;27;20211;-60
2023/08/21 09:35:47;;;;;;;1.55;1.45;;;;;29.70;96682.00;;;;5136887;27;20668;-60
2023/08/21 09:38:16;;;;;;;1.73;1.63;;;;;29.80;96669.00;;;;5136952;27;20204;-59
2023/08/21 09:40:44;;;;;;;1.48;1.38;;;;;29.80;96670.00;;;;5135101;27;20289;-60
2023/08/21 09:43:12;;;;;;;1.63;1.52;;;;;29.90;96687.00;;;;5136611;27;20591;-60
2023/08/21 09:45:40;;;;;;;1.80;1.60;;;;;29.90;96677.00;;;;5136015;27;20213;-60
2023/08/21 09:48:09;;;;;;;1.75;1.65;;;;;30.00;96682.00;;;;5136402;27;20192;-60
2023/08/21 09:50:38;;;;;;;1.73;1.63;;;;;30.00;96676.00;;;;5136274;27;20296;-60
2023/08/21 09:53:08;;;;;;;1.15;1.10;;;;;30.00;96677.00;;;;5136434;27;20272;-60
2023/08/21 09:55:39;;;;;;;0.98;0.98;;;;;30.00;96672.00;;;;5136210;27;20182;-60
2023/08/21 09:58:07;;;;;;;2.72;1.63;;;;;30.10;96669.00;;;;5136643;27;20186;-61
2023/08/21 10:00:36;;;;;;;1.13;1.13;;;;;30.00;96668.00;;;;5136507;27;20193;-60
2023/08/21 10:03:06;;;;;;;1.98;1.88;;;;;30.20;96668.00;;;;5136165;27;20217;-60
2023/08/21 10:05:34;;;;;;;2.90;2.70;;;;;30.20;96667.00;;;;5135495;27;20227;-60
2023/08/21 10:08:03;;;;;;;1.20;1.20;;;;;30.20;96666.00;;;;5135797;27;20192;-60
2023/08/21 10:10:32;;;;;;;2.13;1.65;;;;;30.00;96674.00;;;;5135971;27;20197;-60
2023/08/21 10:13:01;;;;;;;1.58;1.48;;;;;29.70;96669.00;;;;5135193;27;20528;-61
2023/08/21 10:15:31;;;;;;;1.60;1.50;;;;;29.50;96662.00;;;;5135538;27;20189;-61
2023/08/21 10:17:58;;;;;;;2.17;2.08;;;;;29.40;96663.00;;;;5135595;27;20671;-61
2023/08/21 10:20:27;;;;;;;2.05;1.60;;;;;29.30;96658.00;;;;5134202;27;20558;-61
2023/08/21 10:22:56;;;;;;;2.00;1.45;;;;;29.30;96654.00;;;;5135512;27;20186;-60
2023/08/21 10:25:25;;;;;;;1.45;1.35;;;;;29.30;96636.00;;;;5135631;27;20213;-60
2023/08/21 10:27:55;;;;;;;1.60;1.50;;;;;29.70;96652.00;;;;5135331;27;20261;-60
2023/08/21 10:30:28;;;;;;;1.70;1.60;;;;;29.80;96648.00;;;;5135131;27;20212;-59
2023/08/21 10:32:57;;;;;;;1.77;1.70;;;;;29.70;96648.00;;;;5135495;27;20628;-60
2023/08/21 10:35:26;;;;;;;1.23;1.23;;;;;29.70;96650.00;;;;5135229;27;20186;-60
2023/08/21 10:38:10;;;;;;;1.50;1.40;;;;;29.90;96648.00;;;;5135854;27;20213;-60
2023/08/21 10:40:38;;;;;;;1.95;1.75;;;;;29.70;96637.00;;;;5135489;27;20204;-61
2023/08/21 10:43:26;;;;;;;3.90;1.20;;;;;29.80;96625.00;;;;5135613;27;20193;-60
2023/08/21 10:45:57;;;;;;;1.90;1.80;;;;;30.40;96645.00;;;;5135203;27;20240;-60
2023/08/21 10:48:25;;;;;;;6.30;2.83;;;;;30.40;96626.00;;;;5135212;27;20250;-60
2023/08/21 10:50:54;;;;;;;2.17;1.98;;;;;31.00;96629.00;;;;5135377;27;20547;-60
2023/08/21 10:53:21;;;;;;;5.88;2.40;;;;;31.40;96624.00;;;;5135619;27;20231;-60
2023/08/21 10:55:54;;;;;;;5.45;1.77;;;;;31.60;96619.00;;;;5135431;27;20189;-60
2023/08/21 10:58:22;;;;;;;2.33;2.13;;;;;32.00;96619.00;;;;5135469;27;20261;-60
2023/08/21 11:00:59;;;;;;;1.80;1.70;;;;;32.20;96611.00;;;;5135227;27;20197;-61
2023/08/21 11:03:27;;;;;;;1.98;1.88;;;;;32.40;96614.00;;;;5134867;27;20181;-60
2023/08/21 11:06:05;;;;;;;1.58;1.48;;;;;32.40;96618.00;;;;5134932;27;20262;-60
2023/08/21 11:08:33;;;;;;;1.55;1.40;;;;;32.40;96607.00;;;;5135447;27;20193;-60
2023/08/21 11:11:02;;;;;;;1.17;1.17;;;;;32.60;96615.00;;;;5135258;27;20193;-60
2023/08/21 11:13:30;;;;;;;1.83;1.73;;;;;32.90;96620.00;;;;5134875;27;20193;-60
2023/08/21 11:16:02;;;;;;;1.75;1.65;;;;;33.30;96623.00;;;;5134669;27;20209;-60
2023/08/21 11:18:34;;;;;;;6.20;1.70;;;;;33.40;96617.00;;;;5134877;27;20185;-60
2023/08/21 11:21:09;;;;;;;1.52;1.42;;;;;33.50;96613.00;;;;5135289;27;20178;-60
2023/08/21 11:23:37;;;;;;;2.05;1.95;;;;;33.80;96606.00;;;;5134948;27;20185;-60
2023/08/21 11:26:06;;;;;;;1.60;1.50;;;;;33.80;96608.00;;;;5134577;27;20220;-60
2023/08/21 11:28:34;;;;;;;1.30;1.20;;;;;33.80;96608.00;;;;5135160;27;20220;-60
2023/08/21 11:31:02;;;;;;;1.42;1.42;;;;;34.10;96603.00;;;;5134772;27;20209;-60
2023/08/21 11:33:30;;;;;;;2.13;1.92;;;;;34.10;96606.00;;;;5134961;27;20679;-60
2023/08/21 11:35:58;;;;;;;2.00;1.90;;;;;34.30;96606.00;;;;5134283;27;20209;-60
2023/08/21 11:38:28;;;;;;;0.95;0.95;;;;;34.80;96611.00;;;;5132943;27;20189;-60
2023/08/21 11:40:58;;;;;;;1.77;1.67;;;;;35.00;96611.00;;;;5134058;27;20244;-60
2023/08/21 11:43:36;;;;;;;1.33;1.27;;;;;35.20;96617.00;;;;5134380;27;20230;-60
2023/08/21 11:46:06;;;;;;;1.48;1.38;;;;;35.50;96613.00;;;;5134302;27;20303;-60
2023/08/21 11:48:34;;;;;;;1.73;1.63;;;;;35.30;96609.00;;;;5134448;27;20201;-60
2023/08/21 11:51:02;;;;;;;1.60;1.50;;;;;35.10;96608.00;;;;5134225;27;20834;-60
2023/08/21 11:53:35;;;;;;;2.20;1.50;;;;;35.10;96599.00;;;;5134156;27;20250;-61
2023/08/21 11:56:02;;;;;;;1.40;1.30;;;;;35.30;96605.00;;;;5133866;28;20205;-60
2023/08/21 11:58:30;;;;;;;2.00;1.77;;;;;34.80;96631.00;;;;5134128;28;20219;-60
2023/08/21 12:01:07;;;;;;;1.50;1.40;;;;;34.40;96628.00;;;;5134118;28;20190;-61
2023/08/21 12:03:38;;;;;;;2.08;1.60;;;;;33.90;96627.00;;;;5134096;27;20181;-61
2023/08/21 12:06:09;;;;;;;3.08;1.55;;;;;33.50;96636.00;;;;5134044;28;20604;-62
2023/08/21 12:08:37;;;;;;;0.88;0.88;;;;;33.20;96640.00;;;;5134095;28;20198;-61
2023/08/21 12:11:05;;;;;;;2.13;1.92;;;;;33.10;96638.00;;;;5134340;28;20189;-61
2023/08/21 12:13:32;;;;;;;1.90;1.80;;;;;33.20;96635.00;;;;5133873;28;20201;-61
2023/08/21 12:16:00;;;;;;;1.33;1.27;;;;;33.00;96630.00;;;;5133953;28;20584;-61
2023/08/21 12:18:29;;;;;;;1.83;1.73;;;;;33.10;96624.00;;;;5134152;28;20197;-61
2023/08/21 12:20:57;;;;;;;1.50;1.40;;;;;32.80;96623.00;;;;5134286;28;20207;-61
2023/08/21 12:23:24;;;;;;;1.48;1.38;;;;;32.80;96601.00;;;;5133760;28;20186;-61
2023/08/21 12:25:52;;;;;;;1.85;1.75;;;;;33.50;96604.00;;;;5133796;28;20223;-61